createdAt,value
2023-04-20T00:00:11.443Z,3.40
2023-04-20T00:02:42.164Z,3.28
2023-04-20T00:05:10.379Z,3.60
2023-04-20T00:07:37.102Z,3.88
2023-04-20T00:10:04.350Z,4.25
2023-04-20T00:12:31.030Z,3.13
2023-04-20T00:14:57.784Z,3.03
2023-04-20T00:17:24.462Z,3.25
2023-04-20T00:19:51.376Z,3.40
2023-04-20T00:22:18.002Z,4.00
2023-04-20T00:24:44.709Z,3.53
2023-04-20T00:27:11.875Z,3.20
2023-04-20T00:29:38.711Z,3.40
2023-04-20T00:32:06.308Z,3.67
2023-04-20T00:34:33.052Z,3.35
2023-04-20T00:37:00.976Z,3.80
2023-04-20T00:39:27.685Z,3.30
2023-04-20T00:41:54.437Z,2.33
2023-04-20T00:44:21.256Z,2.70
2023-04-20T00:46:47.922Z,3.00
2023-04-20T00:49:14.742Z,3.83
2023-04-20T00:51:41.625Z,3.13
2023-04-20T00:54:08.305Z,2.92
2023-04-20T00:56:34.984Z,3.10
2023-04-20T00:59:02.087Z,2.90
2023-04-20T01:01:29.100Z,2.60
2023-04-20T01:03:56.042Z,3.28
2023-04-20T01:06:22.792Z,3.38
2023-04-20T01:08:51.309Z,2.42
2023-04-20T01:11:18.352Z,3.47
2023-04-20T01:13:45.141Z,2.70
2023-04-20T01:16:12.160Z,3.70
2023-04-20T01:18:48.329Z,3.03
2023-04-20T01:21:17.439Z,3.05
2023-04-20T01:23:44.960Z,3.08
2023-04-20T01:26:14.452Z,3.22
2023-04-20T01:28:41.999Z,3.20
2023-04-20T01:31:09.918Z,3.03
2023-04-20T01:33:36.837Z,2.88
2023-04-20T01:36:05.109Z,3.30
2023-04-20T01:38:34.584Z,2.75
2023-04-20T01:41:04.405Z,3.33
2023-04-20T01:43:31.668Z,2.70
2023-04-20T01:45:59.594Z,3.28
2023-04-20T01:48:26.666Z,2.90
2023-04-20T01:50:53.699Z,3.13
2023-04-20T01:53:20.891Z,3.10
2023-04-20T01:55:51.431Z,3.00
2023-04-20T01:58:18.134Z,3.13
2023-04-20T02:00:44.973Z,2.58
2023-04-20T02:03:11.921Z,3.00
2023-04-20T02:05:38.748Z,2.88
2023-04-20T02:08:05.689Z,3.00
2023-04-20T02:10:32.509Z,3.03
2023-04-20T02:12:59.236Z,3.30
2023-04-20T02:15:25.931Z,3.47
2023-04-20T02:17:52.943Z,3.58
2023-04-20T02:20:20.055Z,3.53
2023-04-20T02:22:47.153Z,2.70
2023-04-20T02:25:14.231Z,4.05
2023-04-20T02:27:41.164Z,3.55
2023-04-20T02:30:08.384Z,3.05
2023-04-20T02:32:35.260Z,2.45
2023-04-20T02:35:03.944Z,3.03
2023-04-20T02:37:31.083Z,3.13
2023-04-20T02:39:57.949Z,3.33
2023-04-20T02:42:26.863Z,3.25
2023-04-20T02:44:55.772Z,3.55
2023-04-20T02:47:22.795Z,2.88
2023-04-20T02:49:51.424Z,2.70
2023-04-20T02:52:18.274Z,3.03
2023-04-20T02:54:45.271Z,2.95
2023-04-20T02:57:13.188Z,2.58
2023-04-20T02:59:40.110Z,2.45
2023-04-20T03:02:14.822Z,4.05
2023-04-20T03:04:41.819Z,2.65
2023-04-20T03:07:18.606Z,3.33
2023-04-20T03:09:46.797Z,3.60
2023-04-20T03:12:41.405Z,2.85
2023-04-20T03:15:24.167Z,2.83
2023-04-20T03:18:05.478Z,3.67
2023-04-20T03:20:35.407Z,2.47
2023-04-20T03:23:02.047Z,2.78
2023-04-20T03:25:32.137Z,3.05
2023-04-20T03:28:00.444Z,3.65
2023-04-20T03:30:27.240Z,1.98
2023-04-20T03:33:00.465Z,2.42
2023-04-20T03:35:27.568Z,3.40
2023-04-20T03:37:54.216Z,2.67
2023-04-20T03:40:21.608Z,2.67
2023-04-20T03:42:48.241Z,2.60
2023-04-20T03:45:15.678Z,2.15
2023-04-20T03:47:42.395Z,3.20
2023-04-20T03:50:09.498Z,2.50
2023-04-20T03:52:38.173Z,2.47
2023-04-20T03:55:05.866Z,2.70
2023-04-20T03:57:34.110Z,3.00
2023-04-20T04:00:04.639Z,3.17
2023-04-20T04:02:44.988Z,2.70
2023-04-20T04:05:12.991Z,3.35
2023-04-20T04:07:39.727Z,2.45
2023-04-20T04:10:07.323Z,2.85
2023-04-20T04:12:34.122Z,3.58
2023-04-20T04:15:01.309Z,2.13
2023-04-20T04:17:31.497Z,2.47
2023-04-20T04:19:58.700Z,2.30
2023-04-20T04:22:25.685Z,2.78
2023-04-20T04:25:12.984Z,3.33
2023-04-20T04:27:40.790Z,2.63
2023-04-20T04:30:08.927Z,2.95
2023-04-20T04:32:36.110Z,2.85
2023-04-20T04:35:04.889Z,2.47
2023-04-20T04:37:31.699Z,2.53
2023-04-20T04:39:58.386Z,3.33
2023-04-20T04:42:34.930Z,2.55
2023-04-20T04:45:04.780Z,2.63
2023-04-20T04:47:36.519Z,3.67
2023-04-20T04:50:07.210Z,2.33
2023-04-20T04:52:34.065Z,2.67
2023-04-20T04:55:00.799Z,3.25
2023-04-20T04:57:27.464Z,4.78
2023-04-20T04:59:54.337Z,3.30
2023-04-20T05:02:21.058Z,3.10
2023-04-20T05:04:48.110Z,3.28
2023-04-20T05:07:15.231Z,3.03
2023-04-20T05:09:44.105Z,2.50
2023-04-20T05:12:10.876Z,2.67
2023-04-20T05:14:37.563Z,2.85
2023-04-20T05:17:04.752Z,4.05
2023-04-20T05:19:31.562Z,3.65
2023-04-20T05:21:58.244Z,3.38
2023-04-20T05:24:25.130Z,3.63
2023-04-20T05:26:51.816Z,3.42
2023-04-20T05:29:18.637Z,4.88
2023-04-20T05:31:45.493Z,4.03
2023-04-20T05:34:14.618Z,3.47
2023-04-20T05:36:41.598Z,4.18
2023-04-20T05:39:08.395Z,3.47
2023-04-20T05:41:35.083Z,3.95
2023-04-20T05:44:01.790Z,3.72
2023-04-20T05:46:29.421Z,3.47
2023-04-20T05:48:56.242Z,3.33
2023-04-20T05:51:23.295Z,3.45
2023-04-20T05:53:49.950Z,2.95
2023-04-20T05:56:18.462Z,3.03
2023-04-20T05:58:45.594Z,3.92
2023-04-20T06:01:12.364Z,3.65
2023-04-20T06:03:39.245Z,3.60
2023-04-20T06:06:06.830Z,3.05
2023-04-20T06:08:33.710Z,3.53
2023-04-20T06:11:00.417Z,3.67
2023-04-20T06:13:27.198Z,3.33
2023-04-20T06:15:54.372Z,3.92
2023-04-20T06:18:21.418Z,3.67
2023-04-20T06:20:51.252Z,3.85
2023-04-20T06:23:18.185Z,4.55
2023-04-20T06:25:44.867Z,4.80
2023-04-20T06:28:11.626Z,4.50
2023-04-20T06:30:38.495Z,3.53
2023-04-20T06:33:05.126Z,2.78
2023-04-20T06:35:31.832Z,3.53
2023-04-20T06:37:59.070Z,3.70
2023-04-20T06:40:29.545Z,4.07
2023-04-20T06:42:56.407Z,3.80
2023-04-20T06:45:23.036Z,4.03
2023-04-20T06:47:49.784Z,3.33
2023-04-20T06:50:16.571Z,3.35
2023-04-20T06:52:43.330Z,3.40
2023-04-20T06:55:10.357Z,4.00
2023-04-20T06:57:39.997Z,3.22
2023-04-20T07:00:11.607Z,4.00
2023-04-20T07:02:45.196Z,2.80
2023-04-20T07:05:12.254Z,4.88
2023-04-20T07:07:39.501Z,3.60
2023-04-20T07:10:11.174Z,3.88
2023-04-20T07:12:39.919Z,3.47
2023-04-20T07:15:09.192Z,4.07
2023-04-20T07:17:35.958Z,4.18
2023-04-20T07:20:07.398Z,3.33
2023-04-20T07:22:38.412Z,3.25
2023-04-20T07:25:07.368Z,4.35
2023-04-20T07:27:39.309Z,3.10
2023-04-20T07:30:10.700Z,3.45
2023-04-20T07:32:39.412Z,4.43
2023-04-20T07:35:06.608Z,2.65
2023-04-20T07:37:33.830Z,2.80
2023-04-20T07:40:00.639Z,3.83
2023-04-20T07:42:27.311Z,3.75
2023-04-20T07:44:54.178Z,3.80
2023-04-20T07:47:21.229Z,2.90
2023-04-20T07:49:47.931Z,3.17
2023-04-20T07:52:17.341Z,3.88
2023-04-20T07:54:47.346Z,3.40
2023-04-20T07:57:14.206Z,3.47
2023-04-20T07:59:41.307Z,3.35
2023-04-20T08:02:08.683Z,4.15
2023-04-20T08:04:38.973Z,4.10
2023-04-20T08:07:05.966Z,4.00
2023-04-20T08:09:32.641Z,3.40
2023-04-20T08:12:00.297Z,4.18
2023-04-20T08:14:27.125Z,3.92
2023-04-20T08:16:53.785Z,3.88
2023-04-20T08:19:20.475Z,4.45
2023-04-20T08:21:47.131Z,3.47
2023-04-20T08:24:13.895Z,3.25
2023-04-20T08:26:40.854Z,3.90
2023-04-20T08:29:07.532Z,4.22
2023-04-20T08:31:34.271Z,5.00
2023-04-20T08:34:01.284Z,4.32
2023-04-20T08:36:28.134Z,3.95
2023-04-20T08:38:58.641Z,3.13
2023-04-20T08:41:26.330Z,3.92
2023-04-20T08:43:52.937Z,3.40
2023-04-20T08:46:19.686Z,3.42
2023-04-20T08:48:48.624Z,3.70
2023-04-20T08:51:17.410Z,3.13
2023-04-20T08:53:44.631Z,4.05
2023-04-20T08:56:11.502Z,4.70
2023-04-20T08:58:42.322Z,3.30
2023-04-20T09:01:10.741Z,3.47
2023-04-20T09:03:40.952Z,5.25
2023-04-20T09:06:16.913Z,4.45
2023-04-20T09:08:48.621Z,3.08
2023-04-20T09:11:29.708Z,3.38
2023-04-20T09:14:18.316Z,4.68
2023-04-20T09:16:53.222Z,4.07
2023-04-20T09:19:27.117Z,3.53
2023-04-20T09:21:55.803Z,3.72
2023-04-20T09:24:30.075Z,5.35
2023-04-20T09:26:56.983Z,3.92
2023-04-20T09:29:25.806Z,5.22
2023-04-20T09:31:52.882Z,6.70
2023-04-20T09:34:20.560Z,6.85
2023-04-20T09:36:54.267Z,5.10
2023-04-20T09:39:22.906Z,3.95
2023-04-20T09:41:51.742Z,3.75
2023-04-20T09:44:19.600Z,2.95
2023-04-20T09:46:47.126Z,3.67
2023-04-20T09:49:15.388Z,3.58
2023-04-20T09:51:45.285Z,3.65
2023-04-20T09:54:13.780Z,4.00
2023-04-20T09:56:41.220Z,3.72
2023-04-20T09:59:08.283Z,3.78
2023-04-20T10:01:36.433Z,3.33
2023-04-20T10:04:06.407Z,3.35
2023-04-20T10:06:34.859Z,3.38
2023-04-20T10:09:04.214Z,3.90
2023-04-20T10:11:44.478Z,3.10
2023-04-20T10:14:23.471Z,3.28
2023-04-20T10:17:06.926Z,3.28
2023-04-20T10:19:45.387Z,3.85
2023-04-20T10:22:25.129Z,2.47
2023-04-20T10:24:51.755Z,3.83
2023-04-20T10:27:20.183Z,2.88
2023-04-20T10:29:46.957Z,3.60
2023-04-20T10:32:29.340Z,4.22
2023-04-20T10:35:11.220Z,3.35
2023-04-20T10:37:48.992Z,3.17
2023-04-20T10:40:16.013Z,2.67
2023-04-20T10:42:44.225Z,3.20
2023-04-20T10:45:11.542Z,3.50
2023-04-20T10:47:40.700Z,3.00
2023-04-20T10:50:12.460Z,3.47
2023-04-20T10:52:41.983Z,3.47
2023-04-20T10:55:20.493Z,3.20
2023-04-20T10:57:47.402Z,2.85
2023-04-20T11:00:28.066Z,3.45
2023-04-20T11:02:58.067Z,2.50
2023-04-20T11:05:28.932Z,2.78
2023-04-20T11:08:01.215Z,3.13
2023-04-20T11:10:39.763Z,3.35
2023-04-20T11:13:06.970Z,3.35
2023-04-20T11:15:35.016Z,3.72
2023-04-20T11:18:08.904Z,3.97
2023-04-20T11:20:36.425Z,2.92
2023-04-20T11:23:05.115Z,2.70
2023-04-20T11:25:32.270Z,3.65
2023-04-20T11:28:11.305Z,2.60
2023-04-20T11:30:41.951Z,3.00
2023-04-20T11:33:09.355Z,2.70
2023-04-20T11:35:41.390Z,2.95
2023-04-20T11:38:08.443Z,3.20
2023-04-20T11:40:36.446Z,3.38
2023-04-20T11:43:04.802Z,3.63
2023-04-20T11:45:35.718Z,3.15
2023-04-20T11:48:04.568Z,3.88
2023-04-20T11:50:31.498Z,3.33
2023-04-20T11:52:58.209Z,3.08
2023-04-20T11:55:25.036Z,3.53
2023-04-20T11:57:51.774Z,4.15
2023-04-20T12:00:19.359Z,3.10
2023-04-20T12:02:48.029Z,3.13
2023-04-20T12:05:15.283Z,2.60
2023-04-20T12:07:45.492Z,3.97
2023-04-20T12:10:14.796Z,3.38
2023-04-20T12:12:43.775Z,2.92
2023-04-20T12:15:10.784Z,3.67
2023-04-20T12:17:37.404Z,3.17
2023-04-20T12:20:08.907Z,3.00
2023-04-20T12:22:35.757Z,2.83
2023-04-20T12:25:02.449Z,2.95
2023-04-20T12:27:29.140Z,2.80
2023-04-20T12:29:56.101Z,3.13
2023-04-20T12:32:22.958Z,2.53
2023-04-20T12:34:49.670Z,4.13
2023-04-20T12:37:16.391Z,3.53
2023-04-20T12:39:42.996Z,4.10
2023-04-20T12:42:09.758Z,3.72
2023-04-20T12:44:36.334Z,3.97
2023-04-20T12:47:03.129Z,3.63
2023-04-20T12:49:30.985Z,3.03
2023-04-20T12:51:58.511Z,3.20
2023-04-20T12:54:25.257Z,3.38
2023-04-20T12:56:51.931Z,4.25
2023-04-20T12:59:18.597Z,2.95
2023-04-20T13:01:45.598Z,3.20
2023-04-20T13:04:16.123Z,2.88
2023-04-20T13:06:45.799Z,3.55
2023-04-20T13:09:12.888Z,3.72
2023-04-20T13:11:39.825Z,4.05
2023-04-20T13:14:09.013Z,2.85
2023-04-20T13:16:40.341Z,3.40
2023-04-20T13:19:09.752Z,3.72
2023-04-20T13:21:37.993Z,3.40
2023-04-20T13:24:07.271Z,3.10
2023-04-20T13:26:56.726Z,3.45
2023-04-20T13:29:26.575Z,2.70
2023-04-20T13:31:53.433Z,3.50
2023-04-20T13:34:20.551Z,3.35
2023-04-20T13:36:48.154Z,2.70
2023-04-20T13:39:19.097Z,2.55
2023-04-20T13:42:03.102Z,4.13
2023-04-20T13:44:32.342Z,2.83
2023-04-20T13:47:06.648Z,3.00
2023-04-20T13:49:37.918Z,2.33
2023-04-20T13:52:12.302Z,3.67
2023-04-20T13:54:39.057Z,2.70
2023-04-20T13:57:07.961Z,2.58
2023-04-20T13:59:34.902Z,2.40
2023-04-20T14:02:03.071Z,4.32
2023-04-20T14:04:30.431Z,3.08
2023-04-20T14:06:57.238Z,2.33
2023-04-20T14:09:23.976Z,2.80
2023-04-20T14:11:53.476Z,2.50
2023-04-20T14:14:21.651Z,3.40
2023-04-20T14:16:49.272Z,3.25
2023-04-20T14:19:15.982Z,2.67
2023-04-20T14:21:44.466Z,2.90
2023-04-20T14:24:14.002Z,2.63
2023-04-20T14:26:41.400Z,2.85
2023-04-20T14:29:08.263Z,3.28
2023-04-20T14:31:35.465Z,2.22
2023-04-20T14:34:02.264Z,2.60
2023-04-20T14:36:29.154Z,2.42
2023-04-20T14:38:55.865Z,2.85
2023-04-20T14:41:23.644Z,3.33
2023-04-20T14:43:50.474Z,2.65
2023-04-20T14:46:18.591Z,2.50
2023-04-20T14:48:46.394Z,3.10
2023-04-20T14:51:13.573Z,2.63
2023-04-20T14:53:42.465Z,2.85
2023-04-20T14:56:09.385Z,2.53
2023-04-20T14:58:37.347Z,2.67
2023-04-20T15:01:04.727Z,3.22
2023-04-20T15:03:31.687Z,3.15
2023-04-20T15:06:00.841Z,3.50
2023-04-20T15:08:27.882Z,2.97
2023-04-20T15:10:57.411Z,3.45
2023-04-20T15:13:24.728Z,2.80
2023-04-20T15:15:57.017Z,3.97
2023-04-20T15:18:23.867Z,3.00
2023-04-20T15:20:55.106Z,3.28
2023-04-20T15:23:22.022Z,3.05
2023-04-20T15:25:48.846Z,3.63
2023-04-20T15:28:15.742Z,3.70
2023-04-20T15:30:42.581Z,2.97
2023-04-20T15:33:12.590Z,3.13
2023-04-20T15:35:39.274Z,3.22
2023-04-20T15:38:06.671Z,3.03
2023-04-20T15:40:33.561Z,3.22
2023-04-20T15:43:00.295Z,2.80
2023-04-20T15:45:26.987Z,5.53
2023-04-20T15:47:55.920Z,3.50
2023-04-20T15:50:23.106Z,4.20
2023-04-20T15:52:52.053Z,4.00
2023-04-20T15:55:18.826Z,3.65
2023-04-20T15:57:45.580Z,3.20
2023-04-20T16:00:13.561Z,4.18
2023-04-20T16:02:40.971Z,3.72
2023-04-20T16:05:10.245Z,2.72
2023-04-20T16:07:36.961Z,3.08
2023-04-20T16:10:06.566Z,3.00
2023-04-20T16:12:35.820Z,3.55
2023-04-20T16:15:05.751Z,3.80
2023-04-20T16:17:34.805Z,3.15
2023-04-20T16:20:01.739Z,3.53
2023-04-20T16:22:31.756Z,3.35
2023-04-20T16:25:05.377Z,3.05
2023-04-20T16:27:41.130Z,3.63
2023-04-20T16:30:30.145Z,3.70
2023-04-20T16:33:23.870Z,3.80
2023-04-20T16:36:01.637Z,3.25
2023-04-20T16:38:32.658Z,3.80
2023-04-20T16:41:02.275Z,3.28
2023-04-20T16:43:31.507Z,4.20
2023-04-20T16:46:07.256Z,3.53
2023-04-20T16:48:40.831Z,3.75
2023-04-20T16:51:08.596Z,4.22
2023-04-20T16:53:35.424Z,3.92
2023-04-20T16:56:15.164Z,4.53
2023-04-20T16:58:50.863Z,4.07
2023-04-20T17:01:25.345Z,4.10
2023-04-20T17:03:54.992Z,4.28
2023-04-20T17:06:22.048Z,4.03
2023-04-20T17:08:50.339Z,3.63
2023-04-20T17:11:19.553Z,3.63
2023-04-20T17:13:46.415Z,4.53
2023-04-20T17:16:13.388Z,4.10
2023-04-20T17:18:42.705Z,3.53
2023-04-20T17:21:09.818Z,3.38
2023-04-20T17:23:36.967Z,3.70
2023-04-20T17:26:04.070Z,4.82
2023-04-20T17:28:30.958Z,4.85
2023-04-20T17:30:58.002Z,3.58
2023-04-20T17:33:24.827Z,3.60
2023-04-20T17:35:51.703Z,4.03
2023-04-20T17:38:18.747Z,4.38
2023-04-20T17:40:45.656Z,4.60
2023-04-20T17:43:12.412Z,3.78
2023-04-20T17:45:39.410Z,3.88
2023-04-20T17:48:06.577Z,4.30
2023-04-20T17:50:38.602Z,4.65
2023-04-20T17:53:12.925Z,4.78
2023-04-20T17:55:39.830Z,4.13
2023-04-20T17:58:06.684Z,3.88
2023-04-20T18:00:33.712Z,3.80
2023-04-20T18:03:00.719Z,4.68
2023-04-20T18:05:30.921Z,4.43
2023-04-20T18:07:57.849Z,4.43
2023-04-20T18:10:24.670Z,4.38
2023-04-20T18:12:52.024Z,4.30
2023-04-20T18:15:18.781Z,4.07
2023-04-20T18:17:45.767Z,4.10
2023-04-20T18:20:16.925Z,4.05
2023-04-20T18:22:50.236Z,5.00
2023-04-20T18:25:18.981Z,4.38
2023-04-20T18:27:46.353Z,5.38
2023-04-20T18:30:13.956Z,4.97
2023-04-20T18:32:40.945Z,3.38
2023-04-20T18:35:08.595Z,3.85
2023-04-20T18:37:35.373Z,4.28
2023-04-20T18:40:02.204Z,5.28
2023-04-20T18:42:28.886Z,4.28
2023-04-20T18:44:56.198Z,4.68
2023-04-20T18:47:24.641Z,5.50
2023-04-20T18:49:52.497Z,5.65
2023-04-20T18:52:19.875Z,5.70
2023-04-20T18:54:47.590Z,5.43
2023-04-20T18:57:14.686Z,5.47
2023-04-20T18:59:41.708Z,5.70
2023-04-20T19:02:12.023Z,6.25
2023-04-20T19:04:39.010Z,5.55
2023-04-20T19:07:05.850Z,6.03
2023-04-20T19:09:32.752Z,6.78
2023-04-20T19:12:02.113Z,5.32
2023-04-20T19:14:31.267Z,5.88
2023-04-20T19:17:03.623Z,5.47
2023-04-20T19:19:32.831Z,5.45
2023-04-20T19:25:28.631Z,6.22
2023-04-20T19:27:56.369Z,5.28
2023-04-20T19:30:25.656Z,5.25
2023-04-20T19:32:52.691Z,4.75
2023-04-20T19:35:19.473Z,4.43
2023-04-20T19:37:46.922Z,4.53
2023-04-20T19:40:16.596Z,4.40
2023-04-20T19:42:43.459Z,4.10
2023-04-20T19:45:14.660Z,4.00
2023-04-20T19:47:46.943Z,3.97
2023-04-20T19:50:15.414Z,3.65
2023-04-20T19:52:42.475Z,4.28
2023-04-20T19:55:11.886Z,3.72
2023-04-20T19:57:39.025Z,3.47
2023-04-20T20:00:11.078Z,4.03
2023-04-20T20:02:41.928Z,4.38
2023-04-20T20:05:09.691Z,3.75
2023-04-20T20:07:39.909Z,3.45
2023-04-20T20:10:07.370Z,3.72
2023-04-20T20:12:37.479Z,4.15
2023-04-20T20:15:13.877Z,3.08
2023-04-20T20:17:47.768Z,4.45
2023-04-20T20:20:19.024Z,3.88
2023-04-20T20:22:56.808Z,3.10
2023-04-20T20:25:35.332Z,4.15
2023-04-20T20:31:06.379Z,4.75
2023-04-20T20:33:37.708Z,2.88
2023-04-20T20:36:44.246Z,3.45
2023-04-20T20:39:11.174Z,3.38
2023-04-20T20:41:42.389Z,3.13
2023-04-20T20:44:12.774Z,2.95
2023-04-20T20:46:40.159Z,3.40
2023-04-20T20:49:06.969Z,3.28
2023-04-20T20:51:36.472Z,3.17
2023-04-20T20:54:03.426Z,3.45
2023-04-20T20:56:32.393Z,3.42
2023-04-20T20:58:59.402Z,3.10
2023-04-20T21:01:26.431Z,4.22
2023-04-20T21:03:55.901Z,3.58
2023-04-20T21:06:23.367Z,3.40
2023-04-20T21:08:51.294Z,4.13
2023-04-20T21:11:18.245Z,3.70
2023-04-20T21:13:45.024Z,2.88
2023-04-20T21:16:14.247Z,3.95
2023-04-20T21:18:41.530Z,4.82
2023-04-20T21:21:18.652Z,3.70
2023-04-20T21:23:48.831Z,3.70
2023-04-20T21:26:16.362Z,3.25
2023-04-20T21:28:43.347Z,4.40
2023-04-20T21:31:12.406Z,3.35
2023-04-20T21:33:39.465Z,3.55
2023-04-20T21:36:06.643Z,3.00
2023-04-20T21:38:33.507Z,3.65
2023-04-20T21:41:00.265Z,3.20
2023-04-20T21:43:27.190Z,3.22
2023-04-20T21:45:53.974Z,3.42
2023-04-20T21:48:20.923Z,2.90
2023-04-20T21:50:47.859Z,4.28
2023-04-20T21:53:14.876Z,2.90
2023-04-20T21:55:41.551Z,2.97
2023-04-20T21:58:21.777Z,3.17
2023-04-20T22:00:50.790Z,2.70
2023-04-20T22:03:18.651Z,4.03
2023-04-20T22:05:55.413Z,3.50
2023-04-20T22:08:25.179Z,3.13
2023-04-20T22:10:55.138Z,2.20
2023-04-20T22:13:22.290Z,2.33
2023-04-20T22:15:51.505Z,2.85
2023-04-20T22:18:19.183Z,2.75
2023-04-20T22:20:46.219Z,2.70
2023-04-20T22:23:12.974Z,2.28
2023-04-20T22:25:40.778Z,2.65
2023-04-20T22:28:07.557Z,2.47
2023-04-20T22:30:34.787Z,2.60
2023-04-20T22:33:02.016Z,2.08
2023-04-20T22:35:29.002Z,3.10
2023-04-20T22:37:56.347Z,2.03
2023-04-20T22:40:24.119Z,2.67
2023-04-20T22:42:51.139Z,2.10
2023-04-20T22:45:20.125Z,2.05
2023-04-20T22:47:47.294Z,2.47
2023-04-20T22:50:14.408Z,2.53
2023-04-20T22:52:41.594Z,2.50
2023-04-20T22:55:09.588Z,2.10
2023-04-20T22:57:36.977Z,2.22
2023-04-20T23:00:07.848Z,2.00
2023-04-20T23:02:34.742Z,2.35
2023-04-20T23:05:01.599Z,2.17
2023-04-20T23:07:28.392Z,2.47
2023-04-20T23:09:56.588Z,2.00
2023-04-20T23:12:23.975Z,2.33
2023-04-20T23:14:50.932Z,1.70
2023-04-20T23:17:17.889Z,2.40
2023-04-20T23:19:44.548Z,2.50
2023-04-20T23:22:11.282Z,2.60
2023-04-20T23:24:37.947Z,2.47
2023-04-20T23:27:05.033Z,2.10
2023-04-20T23:29:33.051Z,2.42
2023-04-20T23:32:00.810Z,2.63
2023-04-20T23:34:29.388Z,2.30
2023-04-20T23:36:56.194Z,2.55
2023-04-20T23:39:25.041Z,2.10
2023-04-20T23:41:51.838Z,2.50
2023-04-20T23:44:18.495Z,2.40
2023-04-20T23:46:45.392Z,2.45
2023-04-20T23:49:12.180Z,2.50
2023-04-20T23:51:38.908Z,2.08
2023-04-20T23:54:05.699Z,2.28
2023-04-20T23:56:32.421Z,2.42
2023-04-20T23:58:59.344Z,3.10
